createdAt,value
2019-05-21T00:01:07.266Z,64.72
2019-05-21T00:03:08.881Z,64.83
2019-05-21T00:05:10.498Z,64.92
2019-05-21T00:07:12.137Z,65.23
2019-05-21T00:09:13.738Z,65.28
2019-05-21T00:11:15.392Z,65.50
2019-05-21T00:13:16.990Z,65.58
2019-05-21T00:15:18.590Z,65.84
2019-05-21T00:17:20.221Z,65.88
2019-05-21T00:19:21.816Z,66.04
2019-05-21T00:21:23.414Z,66.17
2019-05-21T00:23:25.000Z,66.22
2019-05-21T00:25:26.598Z,66.39
2019-05-21T00:27:28.224Z,66.82
2019-05-21T00:29:29.831Z,67.40
2019-05-21T00:31:31.423Z,67.22
2019-05-21T00:33:33.018Z,67.55
2019-05-21T00:35:40.222Z,67.62
2019-05-21T00:37:41.818Z,67.63
2019-05-21T00:39:43.451Z,67.67
2019-05-21T00:41:45.050Z,67.60
2019-05-21T00:43:46.662Z,67.53
2019-05-21T00:45:48.265Z,67.57
2019-05-21T00:47:49.866Z,67.36
2019-05-21T00:49:51.468Z,67.38
2019-05-21T00:52:06.484Z,67.52
2019-05-21T00:53:54.752Z,67.44
2019-05-21T00:55:56.383Z,67.45
2019-05-21T00:57:57.973Z,67.32
2019-05-21T00:59:59.580Z,67.38
2019-05-21T01:02:01.210Z,67.18
2019-05-21T01:04:02.811Z,67.56
2019-05-21T01:06:04.443Z,67.55
2019-05-21T01:08:06.030Z,67.46
2019-05-21T01:10:07.635Z,67.90
2019-05-21T01:12:09.250Z,68.02
2019-05-21T01:14:10.885Z,67.85
2019-05-21T01:16:12.482Z,67.86
2019-05-21T01:18:14.168Z,67.56
2019-05-21T01:20:15.786Z,67.54
2019-05-21T01:22:17.390Z,67.82
2019-05-21T01:24:18.995Z,67.68
2019-05-21T01:26:20.602Z,67.62
2019-05-21T01:28:22.235Z,67.58
2019-05-21T01:32:41.800Z,68.13
2019-05-21T01:34:43.407Z,67.96
2019-05-21T01:36:45.006Z,67.98
2019-05-21T01:38:46.643Z,67.97
2019-05-21T01:40:48.238Z,68.02
2019-05-21T01:42:49.849Z,68.14
2019-05-21T01:44:51.480Z,68.12
2019-05-21T01:46:53.081Z,68.18
2019-05-21T01:48:54.719Z,68.27
2019-05-21T01:50:56.324Z,68.20
2019-05-21T01:52:57.948Z,68.15
2019-05-21T01:54:59.560Z,68.22
2019-05-21T01:57:01.158Z,68.08
2019-05-21T01:59:02.791Z,68.18
2019-05-21T02:01:04.441Z,68.33
2019-05-21T02:03:06.059Z,68.37
2019-05-21T02:05:07.658Z,68.37
2019-05-21T02:07:09.284Z,67.75
2019-05-21T02:09:10.981Z,66.97
2019-05-21T02:11:12.610Z,66.77
2019-05-21T02:13:14.227Z,65.42
2019-05-21T02:15:15.821Z,64.24
2019-05-21T02:17:17.422Z,64.07
2019-05-21T02:19:19.022Z,64.07
2019-05-21T02:21:20.662Z,63.77
2019-05-21T02:23:22.267Z,63.91
2019-05-21T02:25:23.922Z,63.76
2019-05-21T02:27:25.531Z,63.75
2019-05-21T02:29:27.117Z,63.69
2019-05-21T02:31:28.729Z,63.97
2019-05-21T02:33:30.325Z,64.07
2019-05-21T02:35:31.969Z,63.98
2019-05-21T02:37:33.566Z,64.28
2019-05-21T02:39:35.173Z,64.20
2019-05-21T02:41:36.821Z,63.98
2019-05-21T02:43:38.448Z,63.13
2019-05-21T02:45:40.091Z,62.59
2019-05-21T02:47:42.304Z,61.51
2019-05-21T02:49:43.899Z,60.84
2019-05-21T02:51:45.514Z,60.45
2019-05-21T02:53:47.163Z,60.83
2019-05-21T02:55:48.762Z,61.09
2019-05-21T02:57:50.368Z,61.20
2019-05-21T02:59:51.985Z,60.82
2019-05-21T03:01:54.071Z,60.03
2019-05-21T03:03:55.690Z,60.21
2019-05-21T03:06:12.398Z,60.26
2019-05-21T03:07:58.960Z,60.51
2019-05-21T03:10:00.584Z,60.76
2019-05-21T03:12:02.191Z,60.91
2019-05-21T03:14:03.831Z,61.13
2019-05-21T03:16:05.437Z,61.28
2019-05-21T03:18:07.035Z,61.41
2019-05-21T03:20:08.641Z,61.48
2019-05-21T03:22:10.246Z,61.50
2019-05-21T03:24:11.858Z,61.53
2019-05-21T03:26:13.500Z,61.58
2019-05-21T03:28:15.101Z,61.64
2019-05-21T03:30:16.688Z,61.66
2019-05-21T03:32:18.453Z,61.71
2019-05-21T03:34:20.077Z,61.76
2019-05-21T03:36:32.894Z,61.76
2019-05-21T03:38:23.277Z,61.72
2019-05-21T03:40:24.882Z,61.69
2019-05-21T03:42:26.474Z,61.63
2019-05-21T03:44:28.072Z,61.58
2019-05-21T03:46:29.681Z,61.43
2019-05-21T03:48:31.304Z,61.39
2019-05-21T03:50:32.907Z,61.31
2019-05-21T03:52:34.557Z,61.22
2019-05-21T03:54:36.176Z,61.10
2019-05-21T03:56:37.818Z,61.01
2019-05-21T03:58:39.428Z,60.92
2019-05-21T04:00:41.066Z,60.88
2019-05-21T04:02:42.709Z,60.82
2019-05-21T04:04:44.324Z,60.81
2019-05-21T04:06:51.866Z,60.78
2019-05-21T04:08:47.612Z,60.65
2019-05-21T04:10:49.216Z,60.58
2019-05-21T04:12:56.568Z,60.58
2019-05-21T04:14:59.926Z,60.52
2019-05-21T04:17:22.472Z,60.50
2019-05-21T04:19:38.950Z,60.48
2019-05-21T04:21:40.587Z,60.46
2019-05-21T04:23:42.300Z,60.45
2019-05-21T04:25:43.926Z,60.44
2019-05-21T04:27:45.541Z,60.37
2019-05-21T04:29:47.186Z,60.25
2019-05-21T04:31:48.800Z,60.09
2019-05-21T04:33:50.408Z,60.01
2019-05-21T04:35:52.019Z,59.83
2019-05-21T04:37:53.637Z,59.73
2019-05-21T04:39:55.245Z,59.63
2019-05-21T04:41:56.842Z,59.55
2019-05-21T04:43:58.462Z,59.52
2019-05-21T04:46:00.075Z,59.48
2019-05-21T04:48:01.679Z,59.44
2019-05-21T04:50:03.325Z,59.42
2019-05-21T04:52:04.935Z,59.35
2019-05-21T04:54:06.529Z,59.39
2019-05-21T04:56:08.176Z,59.39
2019-05-21T04:58:09.799Z,59.41
2019-05-21T05:00:11.474Z,59.40
2019-05-21T05:02:13.076Z,59.38
2019-05-21T05:04:14.701Z,59.42
2019-05-21T05:06:16.324Z,59.42
2019-05-21T05:08:17.937Z,59.42
2019-05-21T05:10:19.574Z,59.38
2019-05-21T05:12:21.188Z,59.35
2019-05-21T05:14:22.808Z,59.27
2019-05-21T05:16:24.439Z,59.23
2019-05-21T05:18:26.031Z,59.22
2019-05-21T05:20:27.616Z,59.16
2019-05-21T05:22:29.200Z,59.09
2019-05-21T05:24:30.815Z,59.06
2019-05-21T05:26:32.545Z,59.04
2019-05-21T05:28:34.129Z,59.02
2019-05-21T05:30:35.739Z,59.02
2019-05-21T05:32:37.329Z,58.93
2019-05-21T05:34:38.931Z,58.89
2019-05-21T05:36:40.566Z,58.92
2019-05-21T05:38:43.109Z,58.92
2019-05-21T05:40:44.732Z,58.88
2019-05-21T05:42:46.320Z,58.84
2019-05-21T05:44:47.918Z,58.82
2019-05-21T05:46:49.562Z,58.81
2019-05-21T05:48:51.214Z,58.76
2019-05-21T05:50:55.339Z,58.72
2019-05-21T05:52:56.940Z,58.72
2019-05-21T05:54:58.543Z,58.69
2019-05-21T05:57:00.144Z,58.67
2019-05-21T05:59:01.780Z,58.69
2019-05-21T06:01:03.424Z,58.64
2019-05-21T06:03:05.066Z,58.61
2019-05-21T06:05:06.666Z,58.53
2019-05-21T06:07:08.538Z,58.57
2019-05-21T06:09:10.155Z,58.54
2019-05-21T06:11:11.759Z,58.49
2019-05-21T06:13:13.376Z,58.45
2019-05-21T06:15:15.000Z,58.43
2019-05-21T06:17:16.615Z,58.42
2019-05-21T06:19:18.248Z,58.41
2019-05-21T06:21:19.840Z,58.42
2019-05-21T06:23:21.498Z,58.41
2019-05-21T06:25:23.132Z,58.38
2019-05-21T06:27:24.748Z,58.38
2019-05-21T06:29:26.367Z,58.37
2019-05-21T06:31:27.981Z,58.27
2019-05-21T06:33:29.586Z,58.34
2019-05-21T06:35:31.216Z,58.52
2019-05-21T06:37:32.882Z,58.60
2019-05-21T06:39:34.464Z,58.53
2019-05-21T06:41:36.076Z,58.72
2019-05-21T06:43:37.690Z,58.69
2019-05-21T06:45:39.317Z,58.65
2019-05-21T06:47:40.904Z,58.68
2019-05-21T06:49:42.524Z,58.81
2019-05-21T06:51:44.122Z,58.81
2019-05-21T06:53:45.727Z,58.76
2019-05-21T06:55:47.377Z,58.74
2019-05-21T06:57:48.969Z,58.72
2019-05-21T06:59:50.567Z,58.66
2019-05-21T07:01:52.169Z,58.63
2019-05-21T07:03:53.776Z,58.62
2019-05-21T07:05:58.647Z,58.54
2019-05-21T07:07:57.053Z,58.45
2019-05-21T07:09:58.656Z,58.37
2019-05-21T07:12:00.254Z,58.43
2019-05-21T07:14:01.882Z,58.47
2019-05-21T07:16:03.477Z,58.55
2019-05-21T07:18:05.114Z,58.56
2019-05-21T07:20:06.709Z,58.51
2019-05-21T07:22:12.600Z,58.54
2019-05-21T07:24:09.972Z,58.47
2019-05-21T07:26:11.659Z,58.42
2019-05-21T07:28:13.244Z,58.39
2019-05-21T07:30:14.832Z,58.38
2019-05-21T07:32:16.473Z,58.29
2019-05-21T07:34:18.079Z,58.38
2019-05-21T07:36:19.704Z,58.30
2019-05-21T07:38:21.343Z,58.38
2019-05-21T07:40:22.957Z,58.54
2019-05-21T07:42:24.558Z,58.56
2019-05-21T07:44:26.154Z,58.57
2019-05-21T07:46:27.751Z,58.59
2019-05-21T07:48:29.386Z,58.58
2019-05-21T07:50:30.982Z,58.53
2019-05-21T07:52:32.582Z,58.45
2019-05-21T07:54:34.171Z,58.47
2019-05-21T07:56:35.827Z,58.47
2019-05-21T07:58:37.492Z,58.41
2019-05-21T08:00:39.159Z,58.65
2019-05-21T08:02:40.824Z,58.69
2019-05-21T08:04:42.432Z,58.87
2019-05-21T08:06:44.260Z,58.91
2019-05-21T08:08:45.797Z,58.89
2019-05-21T08:10:47.384Z,59.01
2019-05-21T08:12:49.021Z,59.05
2019-05-21T08:14:50.700Z,58.93
2019-05-21T08:16:52.309Z,58.92
2019-05-21T08:18:53.949Z,58.94
2019-05-21T08:20:55.554Z,58.83
2019-05-21T08:22:57.140Z,58.88
2019-05-21T08:24:58.749Z,58.88
2019-05-21T08:27:00.374Z,58.94
2019-05-21T08:29:01.978Z,59.08
2019-05-21T08:31:03.648Z,59.13
2019-05-21T08:33:05.257Z,59.25
2019-05-21T08:35:06.894Z,59.28
2019-05-21T08:37:08.572Z,59.23
2019-05-21T08:39:10.174Z,59.06
2019-05-21T08:41:11.815Z,58.89
2019-05-21T08:43:13.503Z,58.81
2019-05-21T08:45:15.291Z,58.79
2019-05-21T08:47:16.888Z,58.86
2019-05-21T08:49:18.482Z,58.86
2019-05-21T08:51:20.188Z,58.97
2019-05-21T08:53:21.793Z,59.00
2019-05-21T08:55:23.467Z,59.02
2019-05-21T08:57:25.066Z,59.13
2019-05-21T08:59:26.667Z,59.21
2019-05-21T09:01:28.282Z,59.31
2019-05-21T09:03:29.897Z,59.26
2019-05-21T09:05:31.498Z,59.40
2019-05-21T09:07:33.090Z,59.41
2019-05-21T09:09:49.430Z,59.42
2019-05-21T09:11:36.352Z,59.41
2019-05-21T09:13:37.942Z,59.36
2019-05-21T09:15:39.547Z,59.32
2019-05-21T09:17:41.161Z,59.40
2019-05-21T09:19:42.800Z,59.38
2019-05-21T09:21:44.456Z,59.33
2019-05-21T09:23:46.040Z,59.33
2019-05-21T09:25:49.585Z,59.23
2019-05-21T09:27:49.356Z,59.24
2019-05-21T09:29:50.960Z,59.21
2019-05-21T09:31:52.591Z,59.24
2019-05-21T09:33:54.209Z,59.26
2019-05-21T09:35:55.809Z,59.30
2019-05-21T09:37:57.453Z,59.33
2019-05-21T09:39:59.047Z,59.32
2019-05-21T09:42:00.652Z,59.31
2019-05-21T09:44:02.259Z,59.25
2019-05-21T09:46:03.872Z,59.29
2019-05-21T09:48:05.644Z,59.24
2019-05-21T09:50:07.455Z,59.23
2019-05-21T09:52:09.054Z,59.32
2019-05-21T09:54:10.655Z,59.25
2019-05-21T09:56:17.934Z,59.19
2019-05-21T09:58:22.305Z,59.06
2019-05-21T10:00:29.699Z,59.01
2019-05-21T10:02:31.285Z,58.79
2019-05-21T10:04:32.942Z,58.63
2019-05-21T10:06:34.592Z,58.54
2019-05-21T10:08:37.289Z,58.51
2019-05-21T10:10:37.870Z,58.54
2019-05-21T10:12:39.466Z,58.50
2019-05-21T10:14:41.120Z,58.48
2019-05-21T10:16:42.716Z,58.45
2019-05-21T10:18:44.317Z,58.47
2019-05-21T10:20:46.019Z,58.50
2019-05-21T10:22:47.624Z,58.72
2019-05-21T10:24:49.236Z,58.87
2019-05-21T10:26:50.840Z,58.98
2019-05-21T10:28:52.920Z,59.06
2019-05-21T10:30:54.579Z,59.14
2019-05-21T10:32:56.754Z,59.18
2019-05-21T10:34:58.366Z,59.24
2019-05-21T10:37:00.025Z,59.32
2019-05-21T10:39:01.662Z,59.39
2019-05-21T10:41:04.506Z,59.42
2019-05-21T10:43:06.968Z,59.42
2019-05-21T10:45:08.604Z,59.45
2019-05-21T10:47:10.232Z,59.42
2019-05-21T10:49:11.849Z,59.43
2019-05-21T10:51:13.501Z,59.38
2019-05-21T10:53:15.127Z,59.41
2019-05-21T10:55:17.719Z,59.44
2019-05-21T10:57:18.520Z,59.42
2019-05-21T10:59:20.127Z,59.25
2019-05-21T11:01:21.783Z,59.19
2019-05-21T11:03:28.043Z,59.02
2019-05-21T11:05:29.695Z,58.96
2019-05-21T11:07:31.381Z,58.87
2019-05-21T11:09:33.001Z,58.85
2019-05-21T11:11:34.602Z,58.90
2019-05-21T11:13:36.313Z,59.02
2019-05-21T11:15:37.955Z,59.09
2019-05-21T11:17:50.079Z,59.12
2019-05-21T11:19:41.190Z,59.23
2019-05-21T11:21:42.797Z,59.27
2019-05-21T11:23:44.467Z,59.26
2019-05-21T11:25:46.424Z,59.24
2019-05-21T11:27:48.061Z,59.25
2019-05-21T11:29:49.690Z,59.27
2019-05-21T11:31:56.985Z,59.30
2019-05-21T11:33:53.060Z,59.37
2019-05-21T11:35:54.680Z,59.34
2019-05-21T11:37:56.304Z,59.34
2019-05-21T11:39:57.918Z,59.31
2019-05-21T11:41:59.504Z,59.28
2019-05-21T11:44:01.124Z,59.27
2019-05-21T11:46:03.243Z,59.25
2019-05-21T11:48:04.364Z,59.20
2019-05-21T11:50:05.968Z,59.20
2019-05-21T11:52:07.626Z,59.28
2019-05-21T11:54:09.244Z,59.39
2019-05-21T11:56:10.853Z,59.50
2019-05-21T11:58:12.502Z,59.57
2019-05-21T12:00:14.092Z,59.63
2019-05-21T12:02:15.684Z,59.70
2019-05-21T12:04:17.293Z,59.73
2019-05-21T12:06:18.888Z,59.73
2019-05-21T12:08:20.500Z,59.75
2019-05-21T12:10:22.085Z,59.76
2019-05-21T12:12:23.695Z,59.78
2019-05-21T12:14:25.337Z,59.73
2019-05-21T12:16:26.952Z,59.74
2019-05-21T12:18:28.556Z,59.76
2019-05-21T12:20:36.731Z,59.71
2019-05-21T12:22:31.842Z,59.70
2019-05-21T12:24:33.468Z,59.69
2019-05-21T12:26:35.052Z,59.71
2019-05-21T12:28:36.657Z,59.71
2019-05-21T12:30:38.300Z,59.72
2019-05-21T12:32:39.927Z,59.71
2019-05-21T12:34:41.559Z,59.67
2019-05-21T12:36:43.169Z,59.64
2019-05-21T12:38:44.760Z,59.66
2019-05-21T12:40:46.392Z,59.73
2019-05-21T12:42:48.002Z,59.76
2019-05-21T12:44:49.617Z,59.78
2019-05-21T12:46:51.233Z,59.83
2019-05-21T12:48:52.840Z,59.81
2019-05-21T12:50:54.504Z,59.74
2019-05-21T12:52:56.118Z,59.71
2019-05-21T12:54:57.723Z,59.65
2019-05-21T12:56:59.328Z,59.63
2019-05-21T12:59:01.012Z,59.62
2019-05-21T13:01:02.609Z,59.56
2019-05-21T13:03:04.202Z,59.58
2019-05-21T13:05:05.830Z,59.57
2019-05-21T13:07:07.452Z,59.49
2019-05-21T13:09:09.036Z,59.52
2019-05-21T13:11:10.625Z,59.53
2019-05-21T13:13:12.261Z,59.65
2019-05-21T13:15:13.876Z,59.73
2019-05-21T13:17:15.679Z,59.66
2019-05-21T13:19:17.341Z,59.59
2019-05-21T13:21:18.927Z,59.57
2019-05-21T13:23:20.547Z,59.58
2019-05-21T13:25:22.158Z,59.58
2019-05-21T13:27:23.814Z,59.56
2019-05-21T13:29:25.489Z,59.59
2019-05-21T13:31:27.116Z,59.59
2019-05-21T13:33:28.741Z,59.58
2019-05-21T13:35:30.414Z,59.61
2019-05-21T13:37:32.073Z,59.58
2019-05-21T13:39:48.988Z,59.59
2019-05-21T13:41:35.525Z,59.60
2019-05-21T13:43:37.146Z,59.62
2019-05-21T13:45:38.800Z,59.64
2019-05-21T13:47:40.388Z,59.67
2019-05-21T13:49:41.996Z,59.67
2019-05-21T13:51:43.608Z,59.68
2019-05-21T13:53:45.196Z,59.67
2019-05-21T13:55:46.950Z,59.66
2019-05-21T13:57:48.524Z,59.68
2019-05-21T13:59:50.118Z,59.74
2019-05-21T14:01:51.786Z,59.84
2019-05-21T14:03:53.393Z,59.93
2019-05-21T14:05:54.996Z,59.97
2019-05-21T14:07:56.593Z,60.00
2019-05-21T14:10:13.349Z,59.99
2019-05-21T14:11:59.852Z,60.00
2019-05-21T14:14:01.479Z,60.01
2019-05-21T14:16:03.101Z,60.02
2019-05-21T14:18:04.743Z,60.03
2019-05-21T14:20:06.369Z,60.04
2019-05-21T14:22:07.967Z,60.04
2019-05-21T14:24:09.542Z,60.01
2019-05-21T14:26:11.246Z,60.08
2019-05-21T14:28:12.870Z,60.10
2019-05-21T14:30:14.488Z,60.09
2019-05-21T14:32:16.112Z,60.10
2019-05-21T14:34:17.763Z,60.11
2019-05-21T14:36:19.351Z,60.11
2019-05-21T14:38:21.009Z,60.10
2019-05-21T14:40:31.957Z,60.14
2019-05-21T14:42:24.313Z,60.15
2019-05-21T14:44:26.018Z,60.16
2019-05-21T14:46:27.646Z,60.15
2019-05-21T14:48:29.293Z,60.16
2019-05-21T14:50:30.945Z,60.16
2019-05-21T14:52:32.604Z,60.15
2019-05-21T14:54:34.216Z,60.16
2019-05-21T14:56:35.842Z,60.15
2019-05-21T14:58:37.530Z,60.14
2019-05-21T15:00:39.299Z,60.09
2019-05-21T15:02:41.783Z,60.11
2019-05-21T15:04:42.973Z,60.14
2019-05-21T15:06:44.494Z,60.15
2019-05-21T15:08:46.102Z,60.16
2019-05-21T15:10:49.628Z,60.16
2019-05-21T15:12:50.048Z,60.18
2019-05-21T15:14:51.637Z,60.19
2019-05-21T15:16:53.299Z,60.20
2019-05-21T15:18:54.948Z,60.20
2019-05-21T15:20:56.700Z,60.21
2019-05-21T15:22:58.285Z,60.21
2019-05-21T15:24:59.891Z,60.21
2019-05-21T15:27:01.546Z,60.24
2019-05-21T15:29:03.201Z,60.24
2019-05-21T15:31:04.849Z,60.24
2019-05-21T15:33:06.455Z,60.24
2019-05-21T15:35:08.091Z,60.25
2019-05-21T15:37:09.734Z,60.26
2019-05-21T15:39:11.490Z,60.24
2019-05-21T15:41:13.149Z,60.25
2019-05-21T15:43:14.743Z,60.26
2019-05-21T15:45:17.302Z,60.27
2019-05-21T15:47:18.888Z,60.25
2019-05-21T15:49:34.996Z,60.26
2019-05-21T15:51:22.146Z,60.27
2019-05-21T15:53:23.734Z,60.27
2019-05-21T15:55:25.345Z,60.29
2019-05-21T15:57:26.927Z,60.28
2019-05-21T15:59:28.566Z,60.29
2019-05-21T16:01:30.143Z,60.27
2019-05-21T16:03:31.792Z,60.27
2019-05-21T16:05:33.383Z,60.29
2019-05-21T16:07:34.956Z,60.33
2019-05-21T16:09:36.552Z,60.33
2019-05-21T16:11:38.157Z,60.34
2019-05-21T16:13:39.794Z,60.33
2019-05-21T16:15:41.426Z,60.32
2019-05-21T16:17:43.090Z,60.36
2019-05-21T16:19:44.697Z,60.34
2019-05-21T16:21:46.308Z,60.28
2019-05-21T16:23:47.959Z,60.15
2019-05-21T16:25:49.572Z,59.98
2019-05-21T16:27:51.220Z,59.71
2019-05-21T16:29:52.828Z,59.49
2019-05-21T16:31:54.418Z,59.23
2019-05-21T16:33:56.042Z,58.96
2019-05-21T16:35:57.632Z,58.82
2019-05-21T16:37:59.305Z,58.67
2019-05-21T16:40:01.455Z,58.71
2019-05-21T16:42:02.534Z,58.75
2019-05-21T16:44:04.144Z,58.80
2019-05-21T16:46:05.757Z,58.83
2019-05-21T16:48:07.394Z,58.84
2019-05-21T16:50:09.049Z,58.91
2019-05-21T16:52:11.136Z,58.96
2019-05-21T16:54:12.732Z,59.02
2019-05-21T16:56:14.311Z,59.08
2019-05-21T16:58:15.956Z,59.13
2019-05-21T17:00:17.551Z,59.05
2019-05-21T17:02:19.161Z,59.00
2019-05-21T17:04:20.776Z,58.95
2019-05-21T17:06:22.393Z,58.84
2019-05-21T17:08:24.157Z,58.65
2019-05-21T17:10:25.841Z,58.48
2019-05-21T17:12:27.498Z,58.42
2019-05-21T17:14:29.356Z,57.38
2019-05-21T17:16:31.127Z,57.29
2019-05-21T17:18:32.925Z,56.92
2019-05-21T17:20:34.642Z,56.09
2019-05-21T17:22:36.165Z,55.37
2019-05-21T17:24:37.775Z,54.86
2019-05-21T17:26:42.794Z,55.04
2019-05-21T17:28:41.044Z,54.50
2019-05-21T17:30:42.743Z,54.37
2019-05-21T17:32:44.332Z,53.83
2019-05-21T17:34:45.978Z,53.56
2019-05-21T17:36:47.598Z,53.57
2019-05-21T17:38:49.215Z,53.86
2019-05-21T17:40:50.840Z,53.73
2019-05-21T17:42:52.438Z,53.62
2019-05-21T17:44:54.083Z,54.96
2019-05-21T17:46:55.736Z,55.24
2019-05-21T17:48:57.411Z,55.24
2019-05-21T17:50:59.720Z,55.20
2019-05-21T17:53:01.371Z,55.23
2019-05-21T17:55:03.022Z,55.31
2019-05-21T17:57:04.608Z,55.33
2019-05-21T17:59:06.216Z,55.39
2019-05-21T18:01:07.871Z,55.42
2019-05-21T18:03:09.494Z,55.36
2019-05-21T18:05:11.127Z,54.90
2019-05-21T18:07:12.743Z,54.50
2019-05-21T18:09:14.328Z,54.61
2019-05-21T18:11:16.158Z,54.70
2019-05-21T18:13:17.769Z,54.43
2019-05-21T18:15:19.366Z,54.60
2019-05-21T18:17:20.949Z,54.12
2019-05-21T18:19:22.565Z,53.51
2019-05-21T18:21:24.208Z,53.70
2019-05-21T18:23:25.800Z,53.87
2019-05-21T18:25:27.420Z,54.10
2019-05-21T18:27:29.003Z,54.39
2019-05-21T18:29:30.688Z,54.31
2019-05-21T18:31:32.356Z,54.50
2019-05-21T18:33:33.961Z,54.54
2019-05-21T18:35:35.543Z,54.15
2019-05-21T18:37:37.161Z,54.50
2019-05-21T18:39:38.789Z,55.02
2019-05-21T18:41:41.081Z,55.14
2019-05-21T18:43:42.695Z,55.21
2019-05-21T18:45:44.303Z,55.58
2019-05-21T18:47:45.892Z,55.12
2019-05-21T18:49:47.501Z,54.40
2019-05-21T18:51:49.092Z,54.56
2019-05-21T18:53:50.702Z,55.19
2019-05-21T18:55:52.285Z,55.69
2019-05-21T18:57:53.883Z,55.52
2019-05-21T18:59:55.484Z,54.75
2019-05-21T19:01:57.076Z,54.52
2019-05-21T19:03:58.705Z,55.15
2019-05-21T19:06:00.311Z,55.79
2019-05-21T19:08:02.904Z,55.60
2019-05-21T19:10:04.496Z,55.98
2019-05-21T19:12:06.118Z,55.67
2019-05-21T19:14:07.731Z,55.72
2019-05-21T19:16:09.392Z,54.55
2019-05-21T19:18:11.003Z,54.34
2019-05-21T19:20:12.631Z,54.59
2019-05-21T19:22:14.269Z,55.04
2019-05-21T19:24:15.985Z,55.16
2019-05-21T19:26:17.659Z,55.59
2019-05-21T19:28:19.262Z,55.76
2019-05-21T19:30:20.923Z,56.31
2019-05-21T19:32:22.536Z,56.01
2019-05-21T19:34:24.123Z,56.26
2019-05-21T19:36:25.824Z,56.13
2019-05-21T19:38:27.446Z,55.64
2019-05-21T19:40:29.093Z,55.93
2019-05-21T19:42:30.744Z,56.04
2019-05-21T19:44:32.324Z,55.90
2019-05-21T19:46:33.952Z,55.34
2019-05-21T19:48:35.541Z,55.23
2019-05-21T19:50:37.146Z,55.25
2019-05-21T19:52:38.718Z,55.77
2019-05-21T19:54:40.360Z,56.11
2019-05-21T19:56:41.984Z,56.00
2019-05-21T19:58:43.636Z,56.11
2019-05-21T20:01:00.194Z,55.37
2019-05-21T20:03:01.792Z,54.58
2019-05-21T20:05:03.412Z,54.69
2019-05-21T20:07:05.058Z,55.69
2019-05-21T20:09:06.730Z,56.06
2019-05-21T20:11:08.340Z,56.41
2019-05-21T20:13:10.076Z,56.34
2019-05-21T20:15:11.654Z,56.45
2019-05-21T20:17:13.460Z,56.75
2019-05-21T20:19:15.203Z,56.11
2019-05-21T20:21:16.787Z,55.78
2019-05-21T20:23:18.415Z,55.58
2019-05-21T20:25:20.029Z,55.87
2019-05-21T20:27:21.636Z,53.11
2019-05-21T20:29:23.203Z,54.45
2019-05-21T20:31:24.781Z,55.31
2019-05-21T20:33:26.429Z,55.47
2019-05-21T20:35:28.014Z,55.39
2019-05-21T20:37:30.321Z,55.45
2019-05-21T20:39:31.894Z,55.44
2019-05-21T20:41:33.480Z,55.71
2019-05-21T20:43:35.320Z,54.80
2019-05-21T20:45:36.965Z,54.55
2019-05-21T20:47:38.556Z,53.74
2019-05-21T20:49:40.188Z,53.85
2019-05-21T20:51:41.773Z,54.49
2019-05-21T20:53:43.360Z,54.87
2019-05-21T20:55:44.982Z,55.37
2019-05-21T20:57:46.592Z,55.36
2019-05-21T20:59:48.220Z,55.30
2019-05-21T21:01:49.807Z,55.75
2019-05-21T21:03:51.395Z,55.93
2019-05-21T21:05:53.037Z,55.45
2019-05-21T21:07:54.656Z,55.56
2019-05-21T21:09:56.327Z,56.01
2019-05-21T21:11:57.948Z,55.78
2019-05-21T21:14:15.307Z,55.81
2019-05-21T21:16:01.244Z,56.15
2019-05-21T21:18:03.327Z,56.06
2019-05-21T21:20:04.975Z,56.13
2019-05-21T21:22:06.564Z,55.82
2019-05-21T21:24:08.173Z,56.13
2019-05-21T21:26:09.814Z,56.24
2019-05-21T21:28:11.425Z,56.21
2019-05-21T21:30:13.208Z,56.28
2019-05-21T21:32:14.807Z,56.45
2019-05-21T21:34:16.397Z,56.55
2019-05-21T21:36:18.040Z,55.96
2019-05-21T21:38:21.488Z,56.42
2019-05-21T21:40:23.151Z,57.17
2019-05-21T21:42:24.755Z,57.28
2019-05-21T21:44:33.939Z,57.49
2019-05-21T21:46:28.065Z,57.80
2019-05-21T21:48:29.660Z,58.07
2019-05-21T21:50:31.469Z,58.10
2019-05-21T21:52:33.084Z,58.36
2019-05-21T21:54:34.676Z,58.50
2019-05-21T21:56:36.313Z,58.98
2019-05-21T21:58:37.896Z,59.19
2019-05-21T22:00:39.488Z,59.16
2019-05-21T22:02:41.072Z,59.21
2019-05-21T22:04:42.660Z,59.23
2019-05-21T22:06:44.296Z,59.34
2019-05-21T22:08:45.885Z,59.66
2019-05-21T22:10:47.487Z,59.95
2019-05-21T22:12:49.079Z,60.05
2019-05-21T22:14:52.391Z,59.92
2019-05-21T22:16:52.327Z,60.27
2019-05-21T22:18:53.940Z,60.31
2019-05-21T22:20:55.544Z,60.36
2019-05-21T22:22:57.132Z,60.52
2019-05-21T22:24:58.722Z,60.61
2019-05-21T22:27:00.344Z,60.65
2019-05-21T22:29:01.990Z,60.78
2019-05-21T22:31:03.566Z,60.63
2019-05-21T22:33:05.192Z,60.91
2019-05-21T22:35:06.788Z,61.00
2019-05-21T22:37:08.372Z,61.12
2019-05-21T22:39:10.707Z,61.09
2019-05-21T22:41:12.305Z,61.34
2019-05-21T22:43:13.930Z,61.40
2019-05-21T22:45:15.538Z,61.27
2019-05-21T22:47:17.126Z,61.46
2019-05-21T22:49:18.768Z,61.63
2019-05-21T22:51:20.375Z,61.50
2019-05-21T22:53:22.139Z,61.83
2019-05-21T22:55:23.747Z,61.93
2019-05-21T22:57:26.265Z,62.00
2019-05-21T22:59:27.044Z,62.10
2019-05-21T23:01:28.628Z,62.29
2019-05-21T23:03:30.252Z,62.35
2019-05-21T23:05:31.840Z,62.49
2019-05-21T23:07:33.428Z,62.59
2019-05-21T23:09:35.056Z,62.70
2019-05-21T23:11:36.642Z,62.71
2019-05-21T23:13:38.251Z,62.78
2019-05-21T23:15:39.860Z,62.85
2019-05-21T23:17:41.476Z,62.85
2019-05-21T23:19:43.095Z,63.01
2019-05-21T23:21:44.677Z,62.95
2019-05-21T23:23:46.324Z,63.01
2019-05-21T23:25:47.961Z,63.09
2019-05-21T23:27:49.572Z,63.07
2019-05-21T23:29:51.220Z,63.19
2019-05-21T23:31:52.818Z,63.48
2019-05-21T23:33:54.432Z,63.15
2019-05-21T23:35:56.056Z,63.22
2019-05-21T23:37:57.714Z,63.15
2019-05-21T23:39:59.361Z,63.13
2019-05-21T23:42:01.016Z,63.11
2019-05-21T23:44:02.603Z,63.14
2019-05-21T23:46:04.240Z,63.18
2019-05-21T23:48:05.856Z,63.16
2019-05-21T23:50:07.732Z,63.15
2019-05-21T23:52:09.340Z,63.13
2019-05-21T23:54:10.954Z,63.16
2019-05-21T23:56:12.584Z,63.20
2019-05-21T23:58:14.170Z,63.24
